createdAt,value
2019-02-14T00:02:36.384Z,7.81
2019-02-14T00:08:31.336Z,10.16
2019-02-14T00:14:26.355Z,7.91
2019-02-14T00:20:21.354Z,9.05
2019-02-14T00:26:16.379Z,10.55
2019-02-14T00:32:11.356Z,12.09
2019-02-14T00:38:06.361Z,9.62
2019-02-14T00:44:01.370Z,7.41
2019-02-14T00:49:56.377Z,7.58
2019-02-14T00:55:51.358Z,12.12
2019-02-14T01:01:46.358Z,9.53
2019-02-14T01:07:41.381Z,12.57
2019-02-14T01:13:36.407Z,11.21
2019-02-14T01:19:31.427Z,8.87
2019-02-14T01:25:26.390Z,8.14
2019-02-14T01:31:21.386Z,7
2019-02-14T01:37:16.366Z,9.4
2019-02-14T01:43:11.386Z,8.07
2019-02-14T01:49:06.410Z,9.04
2019-02-14T01:55:01.380Z,11.64
2019-02-14T02:00:56.392Z,9.57
2019-02-14T02:06:51.405Z,8.31
2019-02-14T02:12:46.425Z,8.74
2019-02-14T02:18:41.462Z,11.14
2019-02-14T02:24:36.425Z,10.77
2019-02-14T02:30:31.407Z,12.88
2019-02-14T02:36:26.435Z,12.93
2019-02-14T02:42:21.495Z,11.31
2019-02-14T02:48:16.415Z,13.09
2019-02-14T02:54:11.429Z,12.56
2019-02-14T03:00:06.426Z,12.25
2019-02-14T03:06:10.187Z,13.4
2019-02-14T03:11:56.460Z,18.04
2019-02-14T03:17:51.433Z,16.82
2019-02-14T03:23:46.425Z,14.12
2019-02-14T03:29:41.465Z,9.7
2019-02-14T03:35:36.491Z,17.82
2019-02-14T03:41:31.473Z,13.31
2019-02-14T03:47:26.456Z,9.88
2019-02-14T03:53:21.445Z,12.31
2019-02-14T03:59:16.488Z,10.17
2019-02-14T04:05:11.441Z,6.92
2019-02-14T04:11:06.464Z,6.3
2019-02-14T04:17:01.500Z,5.27
2019-02-14T04:22:56.474Z,8.05
2019-02-14T04:28:51.474Z,7.36
2019-02-14T04:34:46.460Z,9.58
2019-02-14T04:40:41.551Z,9.56
2019-02-14T04:46:36.468Z,9.3
2019-02-14T04:52:31.483Z,7.46
2019-02-14T04:58:26.493Z,7.48
2019-02-14T05:04:21.507Z,5.77
2019-02-14T05:10:16.506Z,10.59
2019-02-14T05:16:11.489Z,9.1
2019-02-14T05:22:06.505Z,9.38
2019-02-14T05:28:01.510Z,11.62
2019-02-14T05:33:56.516Z,10.61
2019-02-14T05:39:51.513Z,8.69
2019-02-14T05:45:46.502Z,9.76
2019-02-14T05:51:41.550Z,9.43
2019-02-14T05:57:36.533Z,11.8
2019-02-14T06:03:31.521Z,11.68
2019-02-14T06:09:26.529Z,11.1
2019-02-14T06:15:21.507Z,15.11
2019-02-14T06:21:16.529Z,20.59
2019-02-14T06:27:11.540Z,15.97
2019-02-14T06:33:06.534Z,19.18
2019-02-14T06:39:01.571Z,22.62
2019-02-14T06:44:56.581Z,17.63
2019-02-14T06:50:51.595Z,13.54
2019-02-14T06:56:46.541Z,14.07
2019-02-14T07:02:41.652Z,12.65
2019-02-14T07:08:36.600Z,24.15
2019-02-14T07:14:31.553Z,28.55
2019-02-14T07:20:26.569Z,25.2
2019-02-14T07:26:21.577Z,31.55
2019-02-14T07:32:16.562Z,32.07
2019-02-14T07:38:11.596Z,30.21
2019-02-14T07:44:06.585Z,32.23
2019-02-14T07:50:23.963Z,32.96
2019-02-14T07:55:56.571Z,46.07
2019-02-14T08:01:51.589Z,31.88
2019-02-14T08:07:46.628Z,39.5
2019-02-14T08:13:41.585Z,52.25
2019-02-14T08:19:36.621Z,37.54
2019-02-14T08:25:31.618Z,35.4
2019-02-14T08:31:26.588Z,38.4
2019-02-14T08:37:21.612Z,49.45
2019-02-14T08:43:16.624Z,45.23
2019-02-14T08:49:11.617Z,50.7
2019-02-14T08:55:06.649Z,57.65
2019-02-14T09:01:01.593Z,39.1
2019-02-14T09:06:56.601Z,35.62
2019-02-14T09:12:51.616Z,87.7
2019-02-14T09:18:46.610Z,34.58
2019-02-14T09:24:41.627Z,37.93
2019-02-14T09:30:36.616Z,38.96
2019-02-14T09:36:31.614Z,39.71
2019-02-14T09:42:26.641Z,39.6
2019-02-14T09:48:21.641Z,46.62
2019-02-14T09:54:16.635Z,56.21
2019-02-14T10:00:11.630Z,76.16
2019-02-14T10:06:06.653Z,63.73
2019-02-14T10:12:01.670Z,48.6
2019-02-14T10:17:56.645Z,44.15
2019-02-14T10:23:51.644Z,34.37
2019-02-14T10:29:46.651Z,41.45
2019-02-14T10:35:41.684Z,38.16
2019-02-14T10:41:36.689Z,36.37
2019-02-14T10:47:31.662Z,35.63
2019-02-14T10:53:26.676Z,44.87
2019-02-14T10:59:21.688Z,48.57
2019-02-14T11:05:16.664Z,49.35
2019-02-14T11:11:11.676Z,45.03
2019-02-14T11:17:06.735Z,38.46
2019-02-14T11:23:01.701Z,37.15
2019-02-14T11:28:56.761Z,83.4
2019-02-14T11:34:51.698Z,29.11
2019-02-14T11:40:46.698Z,20.77
2019-02-14T11:46:50.996Z,18.96
2019-02-14T11:52:36.692Z,13.52
2019-02-14T11:58:31.696Z,13.28
2019-02-14T12:04:26.728Z,16.17
2019-02-14T12:10:21.713Z,12.31
2019-02-14T12:16:16.736Z,9.74
2019-02-14T12:22:11.720Z,8.24
2019-02-14T12:28:06.739Z,6.89
2019-02-14T12:34:01.723Z,9.81
2019-02-14T12:39:56.725Z,7.99
2019-02-14T12:45:51.763Z,14.5
2019-02-14T12:51:46.773Z,14.37
2019-02-14T12:57:41.747Z,21.06
2019-02-14T13:03:36.755Z,17.32
2019-02-14T13:09:31.816Z,20.3
2019-02-14T13:15:26.757Z,19.87
2019-02-14T13:21:21.772Z,21.52
2019-02-14T13:27:16.770Z,23.66
2019-02-14T13:33:11.776Z,20.88
2019-02-14T13:39:06.782Z,14.84
2019-02-14T13:45:01.830Z,18.97
2019-02-14T13:50:56.848Z,17.89
2019-02-14T13:56:54.023Z,19.11
2019-02-14T14:02:46.822Z,14.23
2019-02-14T14:08:41.781Z,24.88
2019-02-14T14:14:36.841Z,21.71
2019-02-14T14:20:31.847Z,20.47
2019-02-14T14:26:26.811Z,12.75
2019-02-14T14:32:21.847Z,14.63
2019-02-14T14:38:16.816Z,18.97
2019-02-14T14:44:11.858Z,26.04
2019-02-14T14:50:06.841Z,17.3
2019-02-14T14:56:01.826Z,25.06
2019-02-14T15:01:56.861Z,20.68
2019-02-14T15:07:51.891Z,19.07
2019-02-14T15:13:46.839Z,24.32
2019-02-14T15:19:41.824Z,20.6
2019-02-14T15:25:36.855Z,24.13
2019-02-14T15:31:31.862Z,18.68
2019-02-14T15:37:26.867Z,20.62
2019-02-14T15:43:21.859Z,18.23
2019-02-14T15:49:16.867Z,18.79
2019-02-14T15:55:11.865Z,15.89
2019-02-14T16:01:06.891Z,14.59
2019-02-14T16:07:01.903Z,17.2
2019-02-14T16:12:56.893Z,16.52
2019-02-14T16:18:51.909Z,10.09
2019-02-14T16:24:46.868Z,12.05
2019-02-14T16:30:41.905Z,13.3
2019-02-14T16:36:36.896Z,12.98
2019-02-14T16:42:31.898Z,11.76
2019-02-14T16:48:26.872Z,13.73
2019-02-14T16:54:21.903Z,32.31
2019-02-14T17:00:18.803Z,37.18
2019-02-14T17:06:11.913Z,18.53
2019-02-14T17:12:06.915Z,13.73
2019-02-14T17:18:01.921Z,13.57
2019-02-14T17:23:56.927Z,11.32
2019-02-14T17:29:51.924Z,14.8
2019-02-14T17:35:46.945Z,30.22
2019-02-14T17:41:41.891Z,24.15
2019-02-14T17:47:36.903Z,22.51
2019-02-14T17:53:31.941Z,19.89
2019-02-14T17:59:26.915Z,19.96
2019-02-14T18:05:21.909Z,27.66
2019-02-14T18:11:16.918Z,29.71
2019-02-14T18:17:11.934Z,23.73
2019-02-14T18:23:06.935Z,19.02
2019-02-14T18:29:01.928Z,19.55
2019-02-14T18:34:56.951Z,16.7
2019-02-14T18:40:51.965Z,16.45
2019-02-14T18:46:46.971Z,15.87
2019-02-14T18:52:41.951Z,16.84
2019-02-14T18:58:37.011Z,16.75
2019-02-14T19:04:31.971Z,13.17
2019-02-14T19:10:26.963Z,15.69
2019-02-14T19:16:21.985Z,14.16
2019-02-14T19:22:16.976Z,14.7
2019-02-14T19:28:12.005Z,12.51
2019-02-14T19:34:06.970Z,20.22
2019-02-14T19:40:01.964Z,23.87
2019-02-14T19:45:57.042Z,28.26
2019-02-14T19:51:51.990Z,23.67
2019-02-14T19:57:46.984Z,20.39
2019-02-14T20:03:42.005Z,23.07
2019-02-14T20:09:37.041Z,25.36
2019-02-14T20:15:36.957Z,25.65
2019-02-14T20:21:26.976Z,24.52
2019-02-14T20:27:22.010Z,26.82
2019-02-14T20:33:16.999Z,23
2019-02-14T20:39:12.012Z,26.2
2019-02-14T20:45:07.014Z,26.03
2019-02-14T20:51:02.038Z,26.22
2019-02-14T20:56:57.045Z,21.57
2019-02-14T21:02:52.035Z,23.34
2019-02-14T21:08:47.017Z,18.84
2019-02-14T21:14:42.043Z,20.25
2019-02-14T21:20:37.030Z,20.9
2019-02-14T21:26:32.079Z,19.82
2019-02-14T21:32:27.032Z,23.57
2019-02-14T21:38:22.052Z,21.87
2019-02-14T21:44:17.074Z,22.01
2019-02-14T21:50:12.085Z,19.22
2019-02-14T21:56:07.090Z,23.35
2019-02-14T22:02:05.773Z,26.87
2019-02-14T22:07:57.069Z,23.78
2019-02-14T22:13:52.070Z,21.94
2019-02-14T22:19:47.061Z,21.74
2019-02-14T22:25:42.074Z,20.52
2019-02-14T22:31:37.097Z,22.41
2019-02-14T22:37:32.077Z,21.19
2019-02-14T22:43:27.065Z,22.25
2019-02-14T22:49:22.072Z,18.33
2019-02-14T22:55:17.094Z,22.33
2019-02-14T23:01:12.096Z,25.14
2019-02-14T23:07:07.094Z,20.79
2019-02-14T23:13:02.104Z,30.15
2019-02-14T23:18:57.084Z,26
2019-02-14T23:24:52.081Z,22.74
2019-02-14T23:30:47.113Z,21.85
2019-02-14T23:36:42.123Z,22.9
2019-02-14T23:42:37.111Z,23.54
2019-02-14T23:48:32.106Z,19.78
2019-02-14T23:54:27.093Z,19.13
